createdAt,value
2023-09-20T00:01:04.707Z,16.80
2023-09-20T00:03:11.297Z,16.80
2023-09-20T00:05:16.430Z,16.80
2023-09-20T00:07:18.999Z,16.80
2023-09-20T00:09:21.213Z,16.80
2023-09-20T00:11:23.776Z,16.80
2023-09-20T00:13:26.005Z,16.80
2023-09-20T00:15:31.464Z,16.70
2023-09-20T00:17:35.640Z,16.70
2023-09-20T00:19:41.197Z,16.70
2023-09-20T00:21:43.388Z,16.70
2023-09-20T00:23:45.893Z,16.60
2023-09-20T00:25:50.488Z,16.60
2023-09-20T00:27:52.929Z,16.60
2023-09-20T00:29:55.181Z,16.60
2023-09-20T00:31:57.639Z,16.60
2023-09-20T00:34:05.053Z,16.50
2023-09-20T00:36:07.744Z,16.50
2023-09-20T00:38:10.078Z,16.50
2023-09-20T00:40:22.548Z,16.60
2023-09-20T00:42:25.076Z,16.50
2023-09-20T00:44:27.229Z,16.50
2023-09-20T00:46:33.363Z,16.50
2023-09-20T00:48:36.011Z,16.50
2023-09-20T00:50:38.736Z,16.50
2023-09-20T00:52:47.558Z,16.40
2023-09-20T00:54:50.071Z,16.40
2023-09-20T00:56:52.615Z,16.40
2023-09-20T00:58:56.673Z,16.40
2023-09-20T01:01:01.434Z,16.30
2023-09-20T01:03:04.393Z,16.30
2023-09-20T01:05:06.968Z,16.30
2023-09-20T01:07:09.492Z,16.20
2023-09-20T01:09:15.031Z,16.30
2023-09-20T01:11:17.894Z,16.30
2023-09-20T01:13:20.569Z,16.30
2023-09-20T01:15:23.479Z,16.30
2023-09-20T01:17:25.765Z,16.20
2023-09-20T01:19:30.043Z,16.30
2023-09-20T01:21:40.285Z,16.20
2023-09-20T01:23:45.469Z,16.20
2023-09-20T01:25:48.126Z,16.30
2023-09-20T01:27:52.423Z,16.20
2023-09-20T01:29:55.437Z,16.20
2023-09-20T01:32:04.584Z,16.20
2023-09-20T01:34:07.134Z,16.20
2023-09-20T01:36:09.236Z,16.20
2023-09-20T01:38:12.164Z,16.20
2023-09-20T01:40:16.523Z,16.20
2023-09-20T01:42:18.707Z,16.20
2023-09-20T01:44:23.727Z,16.20
2023-09-20T01:46:26.832Z,16.20
2023-09-20T01:48:29.512Z,16.20
2023-09-20T01:50:33.728Z,16.20
2023-09-20T01:52:38.189Z,16.20
2023-09-20T01:54:42.321Z,16.20
2023-09-20T01:56:44.510Z,16.20
2023-09-20T01:58:46.916Z,16.10
2023-09-20T02:00:51.539Z,16.20
2023-09-20T02:02:55.535Z,16.10
2023-09-20T02:04:58.666Z,16.10
2023-09-20T02:07:00.877Z,16.10
2023-09-20T02:09:05.764Z,16.10
2023-09-20T02:11:08.329Z,16.10
2023-09-20T02:13:10.868Z,16.10
2023-09-20T02:15:14.078Z,16.10
2023-09-20T02:17:17.138Z,16.10
2023-09-20T02:19:20.917Z,16.10
2023-09-20T02:21:23.580Z,16.00
2023-09-20T02:23:29.118Z,16.00
2023-09-20T02:25:31.448Z,16.00
2023-09-20T02:27:35.410Z,16.00
2023-09-20T02:29:38.019Z,16.00
2023-09-20T02:31:40.136Z,16.00
2023-09-20T02:33:43.355Z,16.00
2023-09-20T02:35:46.638Z,16.00
2023-09-20T02:37:50.477Z,16.00
2023-09-20T02:39:52.646Z,15.90
2023-09-20T02:41:55.103Z,16.00
2023-09-20T02:43:57.672Z,15.90
2023-09-20T02:46:06.685Z,15.90
2023-09-20T02:48:10.066Z,15.90
2023-09-20T02:50:13.613Z,15.90
2023-09-20T02:52:18.952Z,15.90
2023-09-20T02:54:21.502Z,15.90
2023-09-20T02:56:23.743Z,15.90
2023-09-20T02:58:26.164Z,15.90
2023-09-20T03:00:31.498Z,15.90
2023-09-20T03:02:34.235Z,15.90
2023-09-20T03:04:36.957Z,15.80
2023-09-20T03:06:38.999Z,15.80
2023-09-20T03:08:46.259Z,15.80
2023-09-20T03:10:48.613Z,15.80
2023-09-20T03:12:53.245Z,15.80
2023-09-20T03:14:55.324Z,15.80
2023-09-20T03:16:57.525Z,15.80
2023-09-20T03:19:00.223Z,15.80
2023-09-20T03:21:11.732Z,15.80
2023-09-20T03:23:14.613Z,15.80
2023-09-20T03:25:21.076Z,15.70
2023-09-20T03:27:25.116Z,15.70
2023-09-20T03:29:27.823Z,15.70
2023-09-20T03:31:32.839Z,15.70
2023-09-20T03:33:35.553Z,15.70
2023-09-20T03:35:38.892Z,15.70
2023-09-20T03:37:42.720Z,15.70
2023-09-20T03:39:46.949Z,15.70
2023-09-20T03:41:49.657Z,15.70
2023-09-20T03:43:52.006Z,15.60
2023-09-20T03:45:54.926Z,15.60
2023-09-20T03:48:02.310Z,15.60
2023-09-20T03:50:11.560Z,15.60
2023-09-20T03:52:13.732Z,15.60
2023-09-20T03:54:17.589Z,15.60
2023-09-20T03:56:19.836Z,15.60
2023-09-20T03:58:22.483Z,15.60
2023-09-20T04:00:28.459Z,15.60
2023-09-20T04:02:31.028Z,15.60
2023-09-20T04:04:35.498Z,15.60
2023-09-20T04:06:37.944Z,15.60
2023-09-20T04:08:40.608Z,15.50
2023-09-20T04:10:43.529Z,15.50
2023-09-20T04:12:49.975Z,15.40
2023-09-20T04:14:53.634Z,15.40
2023-09-20T04:16:55.943Z,15.40
2023-09-20T04:18:58.615Z,15.50
2023-09-20T04:21:01.634Z,15.40
2023-09-20T04:23:04.830Z,15.40
2023-09-20T04:25:07.336Z,15.50
2023-09-20T04:27:10.081Z,15.40
2023-09-20T04:29:12.258Z,15.40
2023-09-20T04:31:15.460Z,15.40
2023-09-20T04:33:17.634Z,15.40
2023-09-20T04:35:20.058Z,15.40
2023-09-20T04:37:24.243Z,15.40
2023-09-20T04:39:27.020Z,15.50
2023-09-20T04:41:29.572Z,15.50
2023-09-20T04:43:32.229Z,15.50
2023-09-20T04:45:34.744Z,15.50
2023-09-20T04:47:38.528Z,15.50
2023-09-20T04:49:41.095Z,15.60
2023-09-20T04:51:43.946Z,15.60
2023-09-20T04:53:46.171Z,15.70
2023-09-20T04:55:48.708Z,15.90
2023-09-20T04:57:51.433Z,16.10
2023-09-20T04:59:53.582Z,16.10
2023-09-20T05:01:56.336Z,16.20
2023-09-20T05:03:58.868Z,16.50
2023-09-20T05:06:01.612Z,16.90
2023-09-20T05:08:05.668Z,17.30
2023-09-20T05:10:08.681Z,18.00
2023-09-20T05:12:10.881Z,18.80
2023-09-20T05:14:13.383Z,19.50
2023-09-20T05:16:15.547Z,20.20
2023-09-20T05:18:20.386Z,21.00
2023-09-20T05:20:22.913Z,21.70
2023-09-20T05:22:25.924Z,22.30
2023-09-20T05:24:28.703Z,23.00
2023-09-20T05:26:31.347Z,23.50
2023-09-20T05:28:33.563Z,24.10
2023-09-20T05:30:36.037Z,24.70
2023-09-20T05:32:38.236Z,25.40
2023-09-20T05:34:40.814Z,26.10
2023-09-20T05:36:44.602Z,26.90
2023-09-20T05:38:47.170Z,27.50
2023-09-20T05:40:52.313Z,28.20
2023-09-20T05:42:55.268Z,28.80
2023-09-20T05:44:57.555Z,29.50
2023-09-20T05:47:00.282Z,30.00
2023-09-20T05:49:02.526Z,30.50
2023-09-20T05:51:05.314Z,31.00
2023-09-20T05:53:09.251Z,31.40
2023-09-20T05:55:15.633Z,31.90
2023-09-20T05:57:19.477Z,32.40
2023-09-20T05:59:23.657Z,32.90
2023-09-20T06:01:26.018Z,33.20
2023-09-20T06:03:28.623Z,33.60
2023-09-20T06:05:32.976Z,33.70
2023-09-20T06:07:35.408Z,34.00
2023-09-20T06:09:37.826Z,34.50
2023-09-20T06:11:40.047Z,34.90
2023-09-20T06:13:42.506Z,35.20
2023-09-20T06:15:48.992Z,35.30
2023-09-20T06:17:53.990Z,35.50
2023-09-20T06:19:58.158Z,35.20
2023-09-20T06:22:00.672Z,34.20
2023-09-20T06:24:03.706Z,32.80
2023-09-20T06:26:07.041Z,32.00
2023-09-20T06:28:10.359Z,31.10
2023-09-20T06:30:15.984Z,31.10
2023-09-20T06:32:19.258Z,30.80
2023-09-20T06:34:23.394Z,30.90
2023-09-20T06:36:25.602Z,30.80
2023-09-20T06:38:31.799Z,30.80
2023-09-20T06:40:40.143Z,30.30
2023-09-20T06:42:43.389Z,29.90
2023-09-20T06:44:45.715Z,29.70
2023-09-20T06:46:48.230Z,29.30
2023-09-20T06:48:51.190Z,29.50
2023-09-20T06:50:54.079Z,28.80
2023-09-20T06:52:56.152Z,29.00
2023-09-20T06:54:58.423Z,28.90
2023-09-20T06:57:04.253Z,28.80
2023-09-20T06:59:07.392Z,28.70
2023-09-20T07:01:11.982Z,28.80
2023-09-20T07:03:14.317Z,29.00
2023-09-20T07:05:18.481Z,29.30
2023-09-20T07:07:20.663Z,29.30
2023-09-20T07:09:24.153Z,29.60
2023-09-20T07:11:27.942Z,29.80
2023-09-20T07:13:33.017Z,29.40
2023-09-20T07:15:36.653Z,29.50
2023-09-20T07:17:42.207Z,29.80
2023-09-20T07:19:48.603Z,29.60
2023-09-20T07:21:51.406Z,29.60
2023-09-20T07:23:53.900Z,29.50
2023-09-20T07:25:56.656Z,29.10
2023-09-20T07:28:01.250Z,29.10
2023-09-20T07:30:09.511Z,29.10
2023-09-20T07:32:12.200Z,29.10
2023-09-20T07:34:15.401Z,29.00
2023-09-20T07:36:17.571Z,29.30
2023-09-20T07:38:26.599Z,29.10
2023-09-20T07:40:32.429Z,29.20
2023-09-20T07:42:35.169Z,29.50
2023-09-20T07:44:37.571Z,29.70
2023-09-20T07:46:40.932Z,29.40
2023-09-20T07:48:50.243Z,29.10
2023-09-20T07:50:53.239Z,29.30
2023-09-20T07:52:55.747Z,29.10
2023-09-20T07:54:58.320Z,29.20
2023-09-20T07:57:00.568Z,29.30
2023-09-20T07:59:07.010Z,28.90
2023-09-20T08:01:19.851Z,28.60
2023-09-20T08:03:23.326Z,28.20
2023-09-20T08:05:25.697Z,28.30
2023-09-20T08:07:28.205Z,28.30
2023-09-20T08:09:30.337Z,28.50
2023-09-20T08:11:34.041Z,28.40
2023-09-20T08:13:36.310Z,28.30
2023-09-20T08:15:45.167Z,28.10
2023-09-20T08:18:06.541Z,28.00
2023-09-20T08:20:12.691Z,27.90
2023-09-20T08:22:18.438Z,27.20
2023-09-20T08:24:39.248Z,27.20
2023-09-20T08:27:00.102Z,26.90
2023-09-20T08:29:20.958Z,27.10
2023-09-20T08:31:42.081Z,27.40
2023-09-20T08:34:02.896Z,27.40
2023-09-20T08:36:23.920Z,27.50
2023-09-20T08:38:45.080Z,27.40
2023-09-20T08:41:06.145Z,27.30
2023-09-20T08:43:26.945Z,27.50
2023-09-20T08:45:47.802Z,27.10
2023-09-20T08:48:11.828Z,26.60
2023-09-20T08:50:33.043Z,26.30
2023-09-20T08:52:54.514Z,26.30
2023-09-20T08:55:17.766Z,26.20
2023-09-20T08:57:39.764Z,25.80
2023-09-20T08:59:55.346Z,26.00
2023-09-20T09:01:58.829Z,26.10
2023-09-20T09:04:03.466Z,26.00
2023-09-20T09:06:06.243Z,25.80
2023-09-20T09:08:08.720Z,25.40
2023-09-20T09:10:11.095Z,25.60
2023-09-20T09:12:13.549Z,25.60
2023-09-20T09:14:16.491Z,25.80
2023-09-20T09:16:22.528Z,25.70
2023-09-20T09:18:25.184Z,26.20
2023-09-20T09:20:33.452Z,26.30
2023-09-20T09:22:36.424Z,26.50
2023-09-20T09:24:46.536Z,26.50
2023-09-20T09:26:49.651Z,26.40
2023-09-20T09:28:51.887Z,26.40
2023-09-20T09:30:56.195Z,26.50
2023-09-20T09:32:59.156Z,26.70
2023-09-20T09:35:06.981Z,26.80
2023-09-20T09:37:11.644Z,27.00
2023-09-20T09:39:32.325Z,27.30
2023-09-20T09:41:46.140Z,27.40
2023-09-20T09:44:00.001Z,27.40
2023-09-20T09:46:10.092Z,27.50
2023-09-20T09:48:16.386Z,27.70
2023-09-20T09:50:18.797Z,27.70
2023-09-20T09:52:26.016Z,27.40
2023-09-20T09:54:32.347Z,27.50
2023-09-20T09:56:35.137Z,27.80
2023-09-20T09:58:37.418Z,27.90
2023-09-20T10:00:44.350Z,27.80
2023-09-20T10:02:47.759Z,28.00
2023-09-20T10:04:54.628Z,27.90
2023-09-20T10:07:16.243Z,28.00
2023-09-20T10:09:25.258Z,28.10
2023-09-20T10:11:27.682Z,28.00
2023-09-20T10:13:32.331Z,27.70
2023-09-20T10:15:35.069Z,27.50
2023-09-20T10:17:53.919Z,27.00
2023-09-20T10:19:57.728Z,26.40
2023-09-20T10:22:09.455Z,26.20
2023-09-20T10:24:18.520Z,26.40
2023-09-20T10:26:22.872Z,26.30
2023-09-20T10:28:26.270Z,26.00
2023-09-20T10:30:29.887Z,25.90
2023-09-20T10:32:36.816Z,26.10
2023-09-20T10:34:39.535Z,25.70
2023-09-20T10:36:52.825Z,25.90
2023-09-20T10:39:19.437Z,25.90
2023-09-20T10:41:39.722Z,25.70
2023-09-20T10:43:44.082Z,26.00
2023-09-20T10:45:54.420Z,25.90
2023-09-20T10:47:57.383Z,26.00
2023-09-20T10:50:00.832Z,26.00
2023-09-20T10:52:04.820Z,26.20
2023-09-20T10:54:27.101Z,26.20
2023-09-20T10:56:54.399Z,26.10
2023-09-20T10:58:58.287Z,26.10
2023-09-20T11:01:03.061Z,26.20
2023-09-20T11:03:09.431Z,26.00
2023-09-20T11:05:13.323Z,26.50
2023-09-20T11:07:15.888Z,26.20
2023-09-20T11:09:18.376Z,26.00
2023-09-20T11:11:21.308Z,26.20
2023-09-20T11:13:24.162Z,26.00
2023-09-20T11:15:26.759Z,26.10
2023-09-20T11:17:28.909Z,26.10
2023-09-20T11:19:31.436Z,26.20
2023-09-20T11:21:35.024Z,26.40
2023-09-20T11:23:38.790Z,26.40
2023-09-20T11:25:44.670Z,26.40
2023-09-20T11:27:46.865Z,26.50
2023-09-20T11:29:50.555Z,25.90
2023-09-20T11:31:57.963Z,25.90
2023-09-20T11:34:01.466Z,25.50
2023-09-20T11:36:04.231Z,25.10
2023-09-20T11:38:08.299Z,25.00
2023-09-20T11:40:11.486Z,25.00
2023-09-20T11:42:44.695Z,24.90
2023-09-20T11:45:27.214Z,24.90
2023-09-20T11:47:35.369Z,24.90
2023-09-20T11:49:38.859Z,24.80
2023-09-20T11:51:42.892Z,24.90
2023-09-20T11:53:45.609Z,24.80
2023-09-20T11:55:47.911Z,24.50
2023-09-20T11:57:50.572Z,24.80
2023-09-20T11:59:55.008Z,24.70
2023-09-20T12:01:57.558Z,24.70
2023-09-20T12:04:02.710Z,24.80
2023-09-20T12:06:05.305Z,25.00
2023-09-20T12:08:07.839Z,25.20
2023-09-20T12:10:10.592Z,25.40
2023-09-20T12:12:13.018Z,25.50
2023-09-20T12:14:16.291Z,25.50
2023-09-20T12:16:19.487Z,25.50
2023-09-20T12:18:22.297Z,25.40
2023-09-20T12:20:28.493Z,25.30
2023-09-20T12:22:32.672Z,25.30
2023-09-20T12:24:34.947Z,25.30
2023-09-20T12:26:37.652Z,25.40
2023-09-20T12:28:39.965Z,25.40
2023-09-20T12:30:42.506Z,25.30
2023-09-20T12:32:44.789Z,25.00
2023-09-20T12:34:47.316Z,24.90
2023-09-20T12:36:49.776Z,24.90
2023-09-20T12:38:52.694Z,24.90
2023-09-20T12:40:56.086Z,25.00
2023-09-20T12:43:01.219Z,24.90
2023-09-20T12:45:06.310Z,24.80
2023-09-20T12:47:09.456Z,24.80
2023-09-20T12:49:11.926Z,24.40
2023-09-20T12:51:15.583Z,24.40
2023-09-20T12:53:17.716Z,24.50
2023-09-20T12:55:20.097Z,24.40
2023-09-20T12:57:25.345Z,24.40
2023-09-20T12:59:28.732Z,24.30
2023-09-20T13:01:31.444Z,24.40
2023-09-20T13:03:34.495Z,24.50
2023-09-20T13:05:38.118Z,24.40
2023-09-20T13:07:41.131Z,24.20
2023-09-20T13:09:43.741Z,24.10
2023-09-20T13:11:47.543Z,23.80
2023-09-20T13:13:51.076Z,23.70
2023-09-20T13:15:53.724Z,23.60
2023-09-20T13:17:59.010Z,23.70
2023-09-20T13:20:03.256Z,23.70
2023-09-20T13:22:08.376Z,23.80
2023-09-20T13:24:10.684Z,23.80
2023-09-20T13:26:13.705Z,23.90
2023-09-20T13:28:16.485Z,23.90
2023-09-20T13:30:19.061Z,24.00
2023-09-20T13:32:22.132Z,23.80
2023-09-20T13:34:26.855Z,23.80
2023-09-20T13:36:29.163Z,23.90
2023-09-20T13:38:31.652Z,23.80
2023-09-20T13:40:34.951Z,23.80
2023-09-20T13:42:37.570Z,23.80
2023-09-20T13:44:41.585Z,23.80
2023-09-20T13:46:45.107Z,23.80
2023-09-20T13:48:47.747Z,23.80
2023-09-20T13:50:50.460Z,23.80
2023-09-20T13:52:55.141Z,23.70
2023-09-20T13:54:57.225Z,23.60
2023-09-20T13:56:59.390Z,23.50
2023-09-20T13:59:03.491Z,23.50
2023-09-20T14:01:06.738Z,23.50
2023-09-20T14:03:09.805Z,23.60
2023-09-20T14:05:16.886Z,23.60
2023-09-20T14:07:19.253Z,23.60
2023-09-20T14:09:22.307Z,23.60
2023-09-20T14:11:24.868Z,23.70
2023-09-20T14:13:27.351Z,23.60
2023-09-20T14:15:31.051Z,23.50
2023-09-20T14:17:34.163Z,23.50
2023-09-20T14:19:36.874Z,23.40
2023-09-20T14:21:39.724Z,23.40
2023-09-20T14:23:42.487Z,23.30
2023-09-20T14:25:47.057Z,23.30
2023-09-20T14:27:51.215Z,23.30
2023-09-20T14:29:53.436Z,23.20
2023-09-20T14:31:55.601Z,23.10
2023-09-20T14:33:58.140Z,23.10
2023-09-20T14:36:00.468Z,22.90
2023-09-20T14:38:03.967Z,22.90
2023-09-20T14:40:14.086Z,22.90
2023-09-20T14:42:16.538Z,22.80
2023-09-20T14:44:18.966Z,22.80
2023-09-20T14:46:22.318Z,22.80
2023-09-20T14:48:24.984Z,22.70
2023-09-20T14:50:28.241Z,22.70
2023-09-20T14:52:31.117Z,22.70
2023-09-20T14:54:35.093Z,22.70
2023-09-20T14:56:37.334Z,22.70
2023-09-20T14:58:40.157Z,22.70
2023-09-20T15:00:42.619Z,22.70
2023-09-20T15:03:01.072Z,22.60
2023-09-20T15:05:05.142Z,22.60
2023-09-20T15:07:07.540Z,22.60
2023-09-20T15:09:10.106Z,22.50
2023-09-20T15:11:13.763Z,22.50
2023-09-20T15:13:16.192Z,22.40
2023-09-20T15:15:22.634Z,22.40
2023-09-20T15:17:25.751Z,22.40
2023-09-20T15:19:29.541Z,22.30
2023-09-20T15:21:31.818Z,22.30
2023-09-20T15:23:35.339Z,22.20
2023-09-20T15:25:37.549Z,22.10
2023-09-20T15:27:42.501Z,22.20
2023-09-20T15:29:47.741Z,22.10
2023-09-20T15:31:50.135Z,22.10
2023-09-20T15:33:54.889Z,22.00
2023-09-20T15:36:01.778Z,22.00
2023-09-20T15:38:09.184Z,21.90
2023-09-20T15:40:17.302Z,21.90
2023-09-20T15:42:20.784Z,21.90
2023-09-20T15:44:23.085Z,21.90
2023-09-20T15:46:25.699Z,21.80
2023-09-20T15:48:30.963Z,21.80
2023-09-20T15:50:35.455Z,21.70
2023-09-20T15:52:43.801Z,21.70
2023-09-20T15:54:46.375Z,21.60
2023-09-20T15:56:50.541Z,21.60
2023-09-20T15:58:53.131Z,21.50
2023-09-20T16:00:55.457Z,21.40
2023-09-20T16:02:58.342Z,21.40
2023-09-20T16:05:01.146Z,21.30
2023-09-20T16:07:06.012Z,21.30
2023-09-20T16:09:08.716Z,21.20
2023-09-20T16:11:12.325Z,21.20
2023-09-20T16:13:20.086Z,21.10
2023-09-20T16:15:23.403Z,21.00
2023-09-20T16:17:25.951Z,21.00
2023-09-20T16:19:28.120Z,20.90
2023-09-20T16:21:30.289Z,20.90
2023-09-20T16:23:33.155Z,20.80
2023-09-20T16:25:40.062Z,20.80
2023-09-20T16:27:43.182Z,20.70
2023-09-20T16:29:45.947Z,20.70
2023-09-20T16:31:48.635Z,20.70
2023-09-20T16:33:51.969Z,20.60
2023-09-20T16:35:54.521Z,20.60
2023-09-20T16:37:56.764Z,20.50
2023-09-20T16:39:59.346Z,20.40
2023-09-20T16:42:02.573Z,20.40
2023-09-20T16:44:05.402Z,20.40
2023-09-20T16:46:07.849Z,20.30
2023-09-20T16:48:11.349Z,20.30
2023-09-20T16:50:19.288Z,20.20
2023-09-20T16:52:26.890Z,20.20
2023-09-20T16:54:31.914Z,20.10
2023-09-20T16:56:36.345Z,20.10
2023-09-20T16:58:42.032Z,20.10
2023-09-20T17:00:46.874Z,20.10
2023-09-20T17:02:58.758Z,20.00
2023-09-20T17:05:03.424Z,20.00
2023-09-20T17:07:11.414Z,19.90
2023-09-20T17:09:25.559Z,19.90
2023-09-20T17:11:27.788Z,19.80
2023-09-20T17:13:30.298Z,19.80
2023-09-20T17:15:35.289Z,19.80
2023-09-20T17:17:38.614Z,19.80
2023-09-20T17:19:44.391Z,19.70
2023-09-20T17:21:46.793Z,19.70
2023-09-20T17:23:49.100Z,19.60
2023-09-20T17:25:51.637Z,19.60
2023-09-20T17:27:53.786Z,19.60
2023-09-20T17:29:58.574Z,19.50
2023-09-20T17:32:00.899Z,19.50
2023-09-20T17:34:05.069Z,19.40
2023-09-20T17:36:12.361Z,19.40
2023-09-20T17:38:16.647Z,19.40
2023-09-20T17:40:21.566Z,19.30
2023-09-20T17:42:24.022Z,19.30
2023-09-20T17:44:27.470Z,19.30
2023-09-20T17:46:30.186Z,19.20
2023-09-20T17:48:32.963Z,19.20
2023-09-20T17:50:35.278Z,19.20
2023-09-20T17:52:39.119Z,19.20
2023-09-20T17:54:45.758Z,19.10
2023-09-20T17:56:49.496Z,19.10
2023-09-20T17:58:54.146Z,19.00
2023-09-20T18:00:56.364Z,18.90
2023-09-20T18:03:05.565Z,18.90
2023-09-20T18:05:08.468Z,18.80
2023-09-20T18:07:11.028Z,18.80
2023-09-20T18:09:14.856Z,18.80
2023-09-20T18:11:17.878Z,18.80
2023-09-20T18:13:22.117Z,18.70
2023-09-20T18:15:27.315Z,18.70
2023-09-20T18:17:29.956Z,18.70
2023-09-20T18:19:35.453Z,18.60
2023-09-20T18:21:40.308Z,18.60
2023-09-20T18:23:43.456Z,18.60
2023-09-20T18:25:45.698Z,18.50
2023-09-20T18:27:51.993Z,18.50
2023-09-20T18:29:54.381Z,18.50
2023-09-20T18:31:57.048Z,18.40
2023-09-20T18:34:00.107Z,18.40
2023-09-20T18:36:03.193Z,18.30
2023-09-20T18:38:14.822Z,18.30
2023-09-20T18:40:18.413Z,18.30
2023-09-20T18:42:20.933Z,18.30
2023-09-20T18:44:27.943Z,18.30
2023-09-20T18:46:30.092Z,18.30
2023-09-20T18:48:33.309Z,18.20
2023-09-20T18:50:35.844Z,18.30
2023-09-20T18:52:41.373Z,18.30
2023-09-20T18:54:46.201Z,18.30
2023-09-20T18:56:51.871Z,18.20
2023-09-20T18:58:56.237Z,18.20
2023-09-20T19:01:02.420Z,18.10
2023-09-20T19:03:07.114Z,18.10
2023-09-20T19:05:11.099Z,18.10
2023-09-20T19:07:13.249Z,18.00
2023-09-20T19:09:19.385Z,18.00
2023-09-20T19:11:24.394Z,18.00
2023-09-20T19:13:29.152Z,18.00
2023-09-20T19:15:34.146Z,18.00
2023-09-20T19:17:37.944Z,18.00
2023-09-20T19:19:49.219Z,18.00
2023-09-20T19:21:54.518Z,17.90
2023-09-20T19:24:03.161Z,17.90
2023-09-20T19:26:08.023Z,17.80
2023-09-20T19:28:10.208Z,17.70
2023-09-20T19:30:17.482Z,17.70
2023-09-20T19:32:22.958Z,17.70
2023-09-20T19:34:28.139Z,17.60
2023-09-20T19:36:30.600Z,17.50
2023-09-20T19:38:33.067Z,17.50
2023-09-20T19:40:40.845Z,17.50
2023-09-20T19:42:49.072Z,17.40
2023-09-20T19:44:52.945Z,17.50
2023-09-20T19:46:56.317Z,17.50
2023-09-20T19:49:02.567Z,17.60
2023-09-20T19:51:13.621Z,17.60
2023-09-20T19:53:19.647Z,17.60
2023-09-20T19:55:26.859Z,17.50
2023-09-20T19:57:33.189Z,17.50
2023-09-20T19:59:35.298Z,17.40
2023-09-20T20:01:39.066Z,17.40
2023-09-20T20:03:41.514Z,17.40
2023-09-20T20:05:44.118Z,17.40
2023-09-20T20:07:48.910Z,17.30
2023-09-20T20:09:54.458Z,17.30
2023-09-20T20:11:57.081Z,17.20
2023-09-20T20:13:59.354Z,17.20
2023-09-20T20:16:04.219Z,17.10
2023-09-20T20:18:06.747Z,17.10
2023-09-20T20:20:28.270Z,17.10
2023-09-20T20:22:32.633Z,17.10
2023-09-20T20:24:35.587Z,17.00
2023-09-20T20:26:37.763Z,17.00
2023-09-20T20:28:42.073Z,17.00
2023-09-20T20:30:47.226Z,17.00
2023-09-20T20:32:51.156Z,16.90
2023-09-20T20:34:53.417Z,16.90
2023-09-20T20:36:56.034Z,16.80
2023-09-20T20:38:58.203Z,16.80
2023-09-20T20:41:00.981Z,16.80
2023-09-20T20:43:06.388Z,16.80
2023-09-20T20:45:17.408Z,16.70
2023-09-20T20:47:22.765Z,16.70
2023-09-20T20:49:28.650Z,16.70
2023-09-20T20:51:33.840Z,16.70
2023-09-20T20:53:36.158Z,16.60
2023-09-20T20:55:39.031Z,16.60
2023-09-20T20:57:44.331Z,16.50
2023-09-20T20:59:46.736Z,16.50
2023-09-20T21:01:49.540Z,16.50
2023-09-20T21:03:56.850Z,16.50
2023-09-20T21:06:00.429Z,16.40
2023-09-20T21:08:05.890Z,16.40
2023-09-20T21:10:11.630Z,16.50
2023-09-20T21:12:16.808Z,16.50
2023-09-20T21:14:18.991Z,16.50
2023-09-20T21:16:22.132Z,16.40
2023-09-20T21:18:27.204Z,16.40
2023-09-20T21:20:31.018Z,16.50
2023-09-20T21:22:33.349Z,16.40
2023-09-20T21:24:35.782Z,16.50
2023-09-20T21:26:40.321Z,16.30
2023-09-20T21:28:45.718Z,16.50
2023-09-20T21:30:48.363Z,16.40
2023-09-20T21:32:55.170Z,16.40
2023-09-20T21:34:57.454Z,16.50
2023-09-20T21:37:02.022Z,16.50
2023-09-20T21:39:08.532Z,16.40
2023-09-20T21:41:12.678Z,16.50
2023-09-20T21:43:14.826Z,16.40
2023-09-20T21:45:21.386Z,16.30
2023-09-20T21:47:23.709Z,16.30
2023-09-20T21:49:26.298Z,16.40
2023-09-20T21:51:28.768Z,16.40
2023-09-20T21:53:32.264Z,16.40
2023-09-20T21:55:37.368Z,16.50
2023-09-20T21:57:40.120Z,16.50
2023-09-20T21:59:44.355Z,16.60
2023-09-20T22:01:49.006Z,16.60
2023-09-20T22:03:51.237Z,16.60
2023-09-20T22:05:54.099Z,16.60
2023-09-20T22:07:58.841Z,16.60
2023-09-20T22:10:02.242Z,16.60
2023-09-20T22:12:09.160Z,16.60
2023-09-20T22:14:11.512Z,16.60
2023-09-20T22:16:14.194Z,16.60
2023-09-20T22:18:21.226Z,16.60
2023-09-20T22:20:26.804Z,16.60
2023-09-20T22:22:29.154Z,16.60
2023-09-20T22:24:31.356Z,16.60
2023-09-20T22:26:33.834Z,16.60
2023-09-20T22:29:01.202Z,16.60
2023-09-20T22:31:05.512Z,16.60
2023-09-20T22:33:09.044Z,16.60
2023-09-20T22:35:14.062Z,16.60
2023-09-20T22:37:17.856Z,16.60
2023-09-20T22:39:20.642Z,16.60
2023-09-20T22:41:23.543Z,16.60
2023-09-20T22:43:26.108Z,16.50
2023-09-20T22:45:28.583Z,16.50
2023-09-20T22:47:32.258Z,16.50
2023-09-20T22:49:35.477Z,16.50
2023-09-20T22:51:39.810Z,16.50
2023-09-20T22:53:44.962Z,16.40
2023-09-20T22:55:49.843Z,16.30
2023-09-20T22:57:51.970Z,16.40
2023-09-20T22:59:54.809Z,16.30
2023-09-20T23:01:56.905Z,16.30
2023-09-20T23:04:02.435Z,16.30
2023-09-20T23:06:04.970Z,16.20
2023-09-20T23:08:07.706Z,16.20
2023-09-20T23:10:13.347Z,16.20
2023-09-20T23:12:17.536Z,16.20
2023-09-20T23:14:20.800Z,16.20
2023-09-20T23:16:28.707Z,16.20
2023-09-20T23:18:31.015Z,16.20
2023-09-20T23:20:37.740Z,16.20
2023-09-20T23:22:39.938Z,16.20
2023-09-20T23:26:51.226Z,16.10
2023-09-20T23:28:53.512Z,16.10
2023-09-20T23:30:59.873Z,16.10
2023-09-20T23:33:03.202Z,16.10
2023-09-20T23:35:10.121Z,16.00
2023-09-20T23:37:15.640Z,16.00
2023-09-20T23:39:22.068Z,15.90
2023-09-20T23:41:24.604Z,15.90
2023-09-20T23:43:26.795Z,15.90
2023-09-20T23:45:30.529Z,15.80
2023-09-20T23:47:33.200Z,15.80
2023-09-20T23:49:35.388Z,15.80
2023-09-20T23:51:37.899Z,15.70
2023-09-20T23:53:40.984Z,15.60
2023-09-20T23:55:43.949Z,15.50
2023-09-20T23:57:47.345Z,15.40
2023-09-20T23:59:49.633Z,15.30
